sensor_id;sensor_type;location;lat;lon;timestamp;P1;durP1;ratioP1;P2;durP2;ratioP2
19059;SDS011;9663;48.996;8.334;2023-07-20T00:01:25;2.13;;;0.88;;
19059;SDS011;9663;48.996;8.334;2023-07-20T00:03:51;2.63;;;0.80;;
19059;SDS011;9663;48.996;8.334;2023-07-20T00:06:21;2.70;;;0.80;;
19059;SDS011;9663;48.996;8.334;2023-07-20T00:08:50;2.55;;;1.00;;
19059;SDS011;9663;48.996;8.334;2023-07-20T00:11:16;2.42;;;1.00;;
19059;SDS011;9663;48.996;8.334;2023-07-20T00:13:42;2.05;;;0.88;;
19059;SDS011;9663;48.996;8.334;2023-07-20T00:16:08;2.53;;;0.90;;
19059;SDS011;9663;48.996;8.334;2023-07-20T00:18:34;2.20;;;0.80;;
19059;SDS011;9663;48.996;8.334;2023-07-20T00:20:59;2.20;;;0.90;;
19059;SDS011;9663;48.996;8.334;2023-07-20T00:23:25;3.17;;;1.10;;
19059;SDS011;9663;48.996;8.334;2023-07-20T00:25:51;2.83;;;0.90;;
19059;SDS011;9663;48.996;8.334;2023-07-20T00:28:17;2.42;;;0.90;;
19059;SDS011;9663;48.996;8.334;2023-07-20T00:30:43;2.55;;;0.90;;
19059;SDS011;9663;48.996;8.334;2023-07-20T00:33:10;2.28;;;0.80;;
19059;SDS011;9663;48.996;8.334;2023-07-20T00:35:37;2.70;;;0.82;;
19059;SDS011;9663;48.996;8.334;2023-07-20T00:38:04;3.63;;;0.95;;
19059;SDS011;9663;48.996;8.334;2023-07-20T00:40:37;2.53;;;0.93;;
19059;SDS011;9663;48.996;8.334;2023-07-20T00:43:03;2.60;;;0.80;;
19059;SDS011;9663;48.996;8.334;2023-07-20T00:45:29;1.65;;;0.70;;
19059;SDS011;9663;48.996;8.334;2023-07-20T00:47:57;2.25;;;0.90;;
19059;SDS011;9663;48.996;8.334;2023-07-20T00:50:26;2.22;;;0.80;;
19059;SDS011;9663;48.996;8.334;2023-07-20T00:52:57;2.53;;;0.90;;
19059;SDS011;9663;48.996;8.334;2023-07-20T00:55:23;1.63;;;0.60;;
19059;SDS011;9663;48.996;8.334;2023-07-20T00:57:50;2.25;;;0.80;;
19059;SDS011;9663;48.996;8.334;2023-07-20T01:00:16;2.58;;;0.88;;
19059;SDS011;9663;48.996;8.334;2023-07-20T01:02:43;2.70;;;0.85;;
19059;SDS011;9663;48.996;8.334;2023-07-20T01:05:09;3.05;;;0.90;;
19059;SDS011;9663;48.996;8.334;2023-07-20T01:07:50;3.05;;;0.88;;
19059;SDS011;9663;48.996;8.334;2023-07-20T01:11:07;2.42;;;0.85;;
19059;SDS011;9663;48.996;8.334;2023-07-20T01:13:34;3.40;;;0.82;;
19059;SDS011;9663;48.996;8.334;2023-07-20T01:16:02;1.90;;;0.80;;
19059;SDS011;9663;48.996;8.334;2023-07-20T01:18:28;2.90;;;1.00;;
19059;SDS011;9663;48.996;8.334;2023-07-20T01:21:13;2.85;;;0.90;;
19059;SDS011;9663;48.996;8.334;2023-07-20T01:24:04;2.40;;;0.88;;
19059;SDS011;9663;48.996;8.334;2023-07-20T01:33:04;2.08;;;0.80;;
19059;SDS011;9663;48.996;8.334;2023-07-20T01:35:33;2.33;;;0.88;;
19059;SDS011;9663;48.996;8.334;2023-07-20T01:38:01;2.80;;;1.05;;
19059;SDS011;9663;48.996;8.334;2023-07-20T01:40:28;2.30;;;0.98;;
19059;SDS011;9663;48.996;8.334;2023-07-20T01:42:55;2.28;;;0.90;;
19059;SDS011;9663;48.996;8.334;2023-07-20T01:45:20;2.72;;;1.00;;
19059;SDS011;9663;48.996;8.334;2023-07-20T01:47:46;1.77;;;0.70;;
19059;SDS011;9663;48.996;8.334;2023-07-20T01:50:12;2.65;;;1.00;;
19059;SDS011;9663;48.996;8.334;2023-07-20T01:52:37;2.80;;;1.00;;
19059;SDS011;9663;48.996;8.334;2023-07-20T01:55:03;3.25;;;1.25;;
19059;SDS011;9663;48.996;8.334;2023-07-20T01:57:29;2.90;;;1.00;;
19059;SDS011;9663;48.996;8.334;2023-07-20T01:59:55;3.42;;;0.95;;
19059;SDS011;9663;48.996;8.334;2023-07-20T02:02:22;3.10;;;1.13;;
19059;SDS011;9663;48.996;8.334;2023-07-20T02:04:51;2.95;;;1.13;;
19059;SDS011;9663;48.996;8.334;2023-07-20T02:07:17;3.60;;;0.90;;
19059;SDS011;9663;48.996;8.334;2023-07-20T02:09:43;2.60;;;0.95;;
19059;SDS011;9663;48.996;8.334;2023-07-20T02:12:08;2.63;;;0.95;;
19059;SDS011;9663;48.996;8.334;2023-07-20T02:14:34;3.28;;;1.08;;
19059;SDS011;9663;48.996;8.334;2023-07-20T02:17:00;2.95;;;1.02;;
19059;SDS011;9663;48.996;8.334;2023-07-20T02:19:26;2.58;;;0.93;;
19059;SDS011;9663;48.996;8.334;2023-07-20T02:21:52;2.80;;;1.05;;
19059;SDS011;9663;48.996;8.334;2023-07-20T02:24:18;2.83;;;1.10;;
19059;SDS011;9663;48.996;8.334;2023-07-20T02:26:43;2.83;;;1.10;;
19059;SDS011;9663;48.996;8.334;2023-07-20T02:29:09;2.47;;;0.95;;
19059;SDS011;9663;48.996;8.334;2023-07-20T02:31:39;2.80;;;1.10;;
19059;SDS011;9663;48.996;8.334;2023-07-20T02:34:05;2.90;;;1.10;;
19059;SDS011;9663;48.996;8.334;2023-07-20T02:36:31;3.00;;;1.10;;
19059;SDS011;9663;48.996;8.334;2023-07-20T02:38:58;2.90;;;1.10;;
19059;SDS011;9663;48.996;8.334;2023-07-20T02:41:24;2.58;;;1.00;;
19059;SDS011;9663;48.996;8.334;2023-07-20T02:43:50;2.53;;;0.93;;
19059;SDS011;9663;48.996;8.334;2023-07-20T02:46:15;2.75;;;0.98;;
19059;SDS011;9663;48.996;8.334;2023-07-20T02:48:41;2.70;;;0.95;;
19059;SDS011;9663;48.996;8.334;2023-07-20T02:51:06;4.90;;;1.10;;
19059;SDS011;9663;48.996;8.334;2023-07-20T02:53:32;2.47;;;0.85;;
19059;SDS011;9663;48.996;8.334;2023-07-20T02:55:58;3.28;;;1.15;;
19059;SDS011;9663;48.996;8.334;2023-07-20T02:58:24;2.47;;;0.90;;
19059;SDS011;9663;48.996;8.334;2023-07-20T03:00:50;3.50;;;0.90;;
19059;SDS011;9663;48.996;8.334;2023-07-20T03:03:15;3.28;;;1.20;;
19059;SDS011;9663;48.996;8.334;2023-07-20T03:05:41;3.30;;;1.10;;
19059;SDS011;9663;48.996;8.334;2023-07-20T03:08:07;2.97;;;1.05;;
19059;SDS011;9663;48.996;8.334;2023-07-20T03:10:37;3.08;;;1.30;;
19059;SDS011;9663;48.996;8.334;2023-07-20T03:13:05;3.10;;;0.90;;
19059;SDS011;9663;48.996;8.334;2023-07-20T03:15:32;3.17;;;1.20;;
19059;SDS011;9663;48.996;8.334;2023-07-20T03:17:57;2.55;;;1.05;;
19059;SDS011;9663;48.996;8.334;2023-07-20T03:20:23;3.17;;;0.98;;
19059;SDS011;9663;48.996;8.334;2023-07-20T03:22:49;2.38;;;1.00;;
19059;SDS011;9663;48.996;8.334;2023-07-20T03:25:15;3.30;;;1.15;;
19059;SDS011;9663;48.996;8.334;2023-07-20T03:27:42;2.40;;;0.95;;
19059;SDS011;9663;48.996;8.334;2023-07-20T03:30:08;3.85;;;1.13;;
19059;SDS011;9663;48.996;8.334;2023-07-20T03:32:35;3.05;;;1.05;;
19059;SDS011;9663;48.996;8.334;2023-07-20T03:35:01;3.53;;;1.25;;
19059;SDS011;9663;48.996;8.334;2023-07-20T03:37:26;3.83;;;1.30;;
19059;SDS011;9663;48.996;8.334;2023-07-20T03:39:53;3.25;;;1.17;;
19059;SDS011;9663;48.996;8.334;2023-07-20T03:42:18;3.25;;;1.02;;
19059;SDS011;9663;48.996;8.334;2023-07-20T03:44:44;3.10;;;1.20;;
19059;SDS011;9663;48.996;8.334;2023-07-20T03:47:09;3.10;;;1.33;;
19059;SDS011;9663;48.996;8.334;2023-07-20T03:49:35;3.13;;;1.25;;
19059;SDS011;9663;48.996;8.334;2023-07-20T03:52:01;2.85;;;1.10;;
19059;SDS011;9663;48.996;8.334;2023-07-20T03:54:30;3.30;;;1.27;;
19059;SDS011;9663;48.996;8.334;2023-07-20T03:56:56;3.13;;;1.30;;
19059;SDS011;9663;48.996;8.334;2023-07-20T03:59:21;2.85;;;1.10;;
19059;SDS011;9663;48.996;8.334;2023-07-20T04:01:47;2.85;;;1.17;;
19059;SDS011;9663;48.996;8.334;2023-07-20T04:04:13;3.15;;;1.30;;
19059;SDS011;9663;48.996;8.334;2023-07-20T04:06:41;3.83;;;1.25;;
19059;SDS011;9663;48.996;8.334;2023-07-20T04:09:09;3.20;;;1.20;;
19059;SDS011;9663;48.996;8.334;2023-07-20T04:11:39;3.45;;;1.20;;
19059;SDS011;9663;48.996;8.334;2023-07-20T04:14:05;3.65;;;1.33;;
19059;SDS011;9663;48.996;8.334;2023-07-20T04:16:31;3.05;;;1.10;;
19059;SDS011;9663;48.996;8.334;2023-07-20T04:18:57;3.30;;;1.25;;
19059;SDS011;9663;48.996;8.334;2023-07-20T04:21:25;3.15;;;1.40;;
19059;SDS011;9663;48.996;8.334;2023-07-20T04:23:52;6.00;;;1.58;;
19059;SDS011;9663;48.996;8.334;2023-07-20T04:26:17;3.90;;;1.35;;
19059;SDS011;9663;48.996;8.334;2023-07-20T04:28:43;4.30;;;1.50;;
19059;SDS011;9663;48.996;8.334;2023-07-20T04:31:12;2.95;;;1.08;;
19059;SDS011;9663;48.996;8.334;2023-07-20T04:33:39;2.85;;;1.15;;
19059;SDS011;9663;48.996;8.334;2023-07-20T04:36:05;3.38;;;1.20;;
19059;SDS011;9663;48.996;8.334;2023-07-20T04:38:32;3.63;;;1.20;;
19059;SDS011;9663;48.996;8.334;2023-07-20T04:40:58;2.90;;;1.10;;
19059;SDS011;9663;48.996;8.334;2023-07-20T04:43:24;3.53;;;1.10;;
19059;SDS011;9663;48.996;8.334;2023-07-20T04:45:51;2.92;;;1.23;;
19059;SDS011;9663;48.996;8.334;2023-07-20T04:48:16;3.92;;;1.15;;
19059;SDS011;9663;48.996;8.334;2023-07-20T04:50:43;3.05;;;1.13;;
19059;SDS011;9663;48.996;8.334;2023-07-20T04:53:13;3.33;;;1.15;;
19059;SDS011;9663;48.996;8.334;2023-07-20T04:55:39;3.42;;;1.20;;
19059;SDS011;9663;48.996;8.334;2023-07-20T04:58:11;4.63;;;1.35;;
19059;SDS011;9663;48.996;8.334;2023-07-20T05:00:38;3.20;;;1.20;;
19059;SDS011;9663;48.996;8.334;2023-07-20T05:03:03;3.97;;;1.35;;
19059;SDS011;9663;48.996;8.334;2023-07-20T05:05:30;3.67;;;1.50;;
19059;SDS011;9663;48.996;8.334;2023-07-20T05:07:56;3.65;;;1.40;;
19059;SDS011;9663;48.996;8.334;2023-07-20T05:10:23;4.28;;;1.40;;
19059;SDS011;9663;48.996;8.334;2023-07-20T05:12:49;3.42;;;1.35;;
19059;SDS011;9663;48.996;8.334;2023-07-20T05:15:14;3.30;;;1.35;;
19059;SDS011;9663;48.996;8.334;2023-07-20T05:17:40;4.03;;;1.20;;
19059;SDS011;9663;48.996;8.334;2023-07-20T05:20:06;2.95;;;1.17;;
19059;SDS011;9663;48.996;8.334;2023-07-20T05:22:35;3.00;;;1.20;;
19059;SDS011;9663;48.996;8.334;2023-07-20T05:25:04;2.92;;;1.20;;
19059;SDS011;9663;48.996;8.334;2023-07-20T05:27:36;3.30;;;1.60;;
19059;SDS011;9663;48.996;8.334;2023-07-20T05:30:03;3.95;;;1.42;;
19059;SDS011;9663;48.996;8.334;2023-07-20T05:32:30;3.25;;;1.30;;
19059;SDS011;9663;48.996;8.334;2023-07-20T05:34:55;3.63;;;1.33;;
19059;SDS011;9663;48.996;8.334;2023-07-20T05:37:21;3.55;;;1.38;;
19059;SDS011;9663;48.996;8.334;2023-07-20T05:39:47;3.47;;;1.30;;
19059;SDS011;9663;48.996;8.334;2023-07-20T05:42:13;3.00;;;1.13;;
19059;SDS011;9663;48.996;8.334;2023-07-20T05:44:39;3.55;;;1.45;;
19059;SDS011;9663;48.996;8.334;2023-07-20T05:47:06;3.10;;;1.30;;
19059;SDS011;9663;48.996;8.334;2023-07-20T05:49:32;2.78;;;1.17;;
19059;SDS011;9663;48.996;8.334;2023-07-20T05:51:59;3.15;;;1.17;;
19059;SDS011;9663;48.996;8.334;2023-07-20T05:54:26;4.80;;;1.35;;
19059;SDS011;9663;48.996;8.334;2023-07-20T05:56:52;3.53;;;1.00;;
19059;SDS011;9663;48.996;8.334;2023-07-20T05:59:18;2.90;;;1.20;;
19059;SDS011;9663;48.996;8.334;2023-07-20T06:01:48;2.90;;;1.10;;
19059;SDS011;9663;48.996;8.334;2023-07-20T06:04:14;3.33;;;1.20;;
19059;SDS011;9663;48.996;8.334;2023-07-20T06:06:40;3.00;;;1.10;;
19059;SDS011;9663;48.996;8.334;2023-07-20T06:09:06;3.67;;;1.38;;
19059;SDS011;9663;48.996;8.334;2023-07-20T06:11:36;3.10;;;1.10;;
19059;SDS011;9663;48.996;8.334;2023-07-20T06:14:03;3.22;;;1.05;;
19059;SDS011;9663;48.996;8.334;2023-07-20T06:16:30;2.72;;;1.10;;
19059;SDS011;9663;48.996;8.334;2023-07-20T06:18:56;3.83;;;1.10;;
19059;SDS011;9663;48.996;8.334;2023-07-20T06:21:22;3.20;;;1.10;;
19059;SDS011;9663;48.996;8.334;2023-07-20T06:23:48;4.07;;;1.40;;
19059;SDS011;9663;48.996;8.334;2023-07-20T06:26:13;3.63;;;1.25;;
19059;SDS011;9663;48.996;8.334;2023-07-20T06:28:39;3.30;;;1.23;;
19059;SDS011;9663;48.996;8.334;2023-07-20T06:31:05;3.65;;;1.10;;
19059;SDS011;9663;48.996;8.334;2023-07-20T06:33:30;2.63;;;1.05;;
19059;SDS011;9663;48.996;8.334;2023-07-20T06:35:56;2.83;;;1.10;;
19059;SDS011;9663;48.996;8.334;2023-07-20T06:38:23;4.05;;;1.10;;
19059;SDS011;9663;48.996;8.334;2023-07-20T06:40:49;3.65;;;1.13;;
19059;SDS011;9663;48.996;8.334;2023-07-20T06:43:16;2.88;;;1.13;;
19059;SDS011;9663;48.996;8.334;2023-07-20T06:45:42;4.13;;;1.13;;
19059;SDS011;9663;48.996;8.334;2023-07-20T06:48:08;3.33;;;1.20;;
19059;SDS011;9663;48.996;8.334;2023-07-20T06:50:34;3.10;;;1.08;;
19059;SDS011;9663;48.996;8.334;2023-07-20T06:53:00;2.92;;;1.10;;
19059;SDS011;9663;48.996;8.334;2023-07-20T06:55:28;3.80;;;1.10;;
19059;SDS011;9663;48.996;8.334;2023-07-20T06:57:54;2.67;;;1.08;;
19059;SDS011;9663;48.996;8.334;2023-07-20T07:00:19;4.00;;;1.10;;
19059;SDS011;9663;48.996;8.334;2023-07-20T07:02:45;3.25;;;1.17;;
19059;SDS011;9663;48.996;8.334;2023-07-20T07:05:11;3.72;;;1.10;;
19059;SDS011;9663;48.996;8.334;2023-07-20T07:07:38;2.83;;;1.20;;
19059;SDS011;9663;48.996;8.334;2023-07-20T07:10:04;3.05;;;1.13;;
19059;SDS011;9663;48.996;8.334;2023-07-20T07:12:31;2.88;;;1.10;;
19059;SDS011;9663;48.996;8.334;2023-07-20T07:14:56;3.80;;;1.50;;
19059;SDS011;9663;48.996;8.334;2023-07-20T07:17:23;3.03;;;1.10;;
19059;SDS011;9663;48.996;8.334;2023-07-20T07:19:49;3.33;;;1.33;;
19059;SDS011;9663;48.996;8.334;2023-07-20T07:22:18;3.17;;;1.10;;
19059;SDS011;9663;48.996;8.334;2023-07-20T07:24:44;4.50;;;1.08;;
19059;SDS011;9663;48.996;8.334;2023-07-20T07:27:10;3.05;;;1.20;;
19059;SDS011;9663;48.996;8.334;2023-07-20T07:29:36;2.88;;;1.08;;
19059;SDS011;9663;48.996;8.334;2023-07-20T07:32:01;3.53;;;1.30;;
19059;SDS011;9663;48.996;8.334;2023-07-20T07:34:28;3.47;;;1.23;;
19059;SDS011;9663;48.996;8.334;2023-07-20T07:36:54;3.30;;;1.17;;
19059;SDS011;9663;48.996;8.334;2023-07-20T07:39:19;3.17;;;1.20;;
19059;SDS011;9663;48.996;8.334;2023-07-20T07:41:45;3.35;;;1.00;;
19059;SDS011;9663;48.996;8.334;2023-07-20T07:44:11;3.05;;;1.02;;
19059;SDS011;9663;48.996;8.334;2023-07-20T07:46:37;3.25;;;1.13;;
19059;SDS011;9663;48.996;8.334;2023-07-20T07:49:02;2.80;;;0.98;;
19059;SDS011;9663;48.996;8.334;2023-07-20T07:51:28;2.50;;;0.90;;
19059;SDS011;9663;48.996;8.334;2023-07-20T07:53:54;2.63;;;1.00;;
19059;SDS011;9663;48.996;8.334;2023-07-20T07:56:20;3.35;;;1.20;;
19059;SDS011;9663;48.996;8.334;2023-07-20T07:58:49;2.63;;;0.90;;
19059;SDS011;9663;48.996;8.334;2023-07-20T08:01:16;3.50;;;1.27;;
19059;SDS011;9663;48.996;8.334;2023-07-20T08:03:44;3.20;;;1.17;;
19059;SDS011;9663;48.996;8.334;2023-07-20T08:06:12;2.75;;;1.17;;
19059;SDS011;9663;48.996;8.334;2023-07-20T08:08:39;3.03;;;1.00;;
19059;SDS011;9663;48.996;8.334;2023-07-20T08:11:04;3.20;;;1.15;;
19059;SDS011;9663;48.996;8.334;2023-07-20T08:13:30;2.28;;;0.98;;
19059;SDS011;9663;48.996;8.334;2023-07-20T08:15:57;2.30;;;1.00;;
19059;SDS011;9663;48.996;8.334;2023-07-20T08:18:23;2.28;;;0.90;;
19059;SDS011;9663;48.996;8.334;2023-07-20T08:20:49;2.78;;;1.02;;
19059;SDS011;9663;48.996;8.334;2023-07-20T08:23:15;6.25;;;0.90;;
19059;SDS011;9663;48.996;8.334;2023-07-20T08:25:41;2.80;;;1.02;;
19059;SDS011;9663;48.996;8.334;2023-07-20T08:28:10;2.08;;;1.05;;
19059;SDS011;9663;48.996;8.334;2023-07-20T08:33:14;3.67;;;1.50;;
19059;SDS011;9663;48.996;8.334;2023-07-20T08:35:43;3.30;;;1.08;;
19059;SDS011;9663;48.996;8.334;2023-07-20T08:38:08;3.00;;;1.00;;
19059;SDS011;9663;48.996;8.334;2023-07-20T08:40:39;2.22;;;1.00;;
19059;SDS011;9663;48.996;8.334;2023-07-20T08:43:11;3.38;;;1.20;;
19059;SDS011;9663;48.996;8.334;2023-07-20T08:45:41;3.00;;;1.10;;
19059;SDS011;9663;48.996;8.334;2023-07-20T08:48:10;2.60;;;1.10;;
19059;SDS011;9663;48.996;8.334;2023-07-20T08:50:37;3.03;;;0.98;;
19059;SDS011;9663;48.996;8.334;2023-07-20T08:53:03;3.17;;;1.20;;
19059;SDS011;9663;48.996;8.334;2023-07-20T08:55:31;3.20;;;1.23;;
19059;SDS011;9663;48.996;8.334;2023-07-20T08:57:57;2.90;;;1.40;;
19059;SDS011;9663;48.996;8.334;2023-07-20T09:00:25;3.17;;;1.25;;
19059;SDS011;9663;48.996;8.334;2023-07-20T09:02:53;2.53;;;0.90;;
19059;SDS011;9663;48.996;8.334;2023-07-20T09:05:20;2.63;;;1.10;;
19059;SDS011;9663;48.996;8.334;2023-07-20T09:07:48;2.03;;;0.88;;
19059;SDS011;9663;48.996;8.334;2023-07-20T09:10:14;2.85;;;1.08;;
19059;SDS011;9663;48.996;8.334;2023-07-20T09:12:41;2.50;;;0.93;;
19059;SDS011;9663;48.996;8.334;2023-07-20T09:15:08;2.47;;;1.00;;
19059;SDS011;9663;48.996;8.334;2023-07-20T09:17:36;2.40;;;0.93;;
19059;SDS011;9663;48.996;8.334;2023-07-20T09:20:05;5.05;;;1.08;;
19059;SDS011;9663;48.996;8.334;2023-07-20T09:22:35;2.42;;;0.95;;
19059;SDS011;9663;48.996;8.334;2023-07-20T09:25:12;2.85;;;1.00;;
19059;SDS011;9663;48.996;8.334;2023-07-20T09:27:44;3.25;;;1.00;;
19059;SDS011;9663;48.996;8.334;2023-07-20T09:30:13;1.77;;;0.70;;
19059;SDS011;9663;48.996;8.334;2023-07-20T09:32:44;2.60;;;0.98;;
19059;SDS011;9663;48.996;8.334;2023-07-20T09:35:13;2.33;;;0.88;;
19059;SDS011;9663;48.996;8.334;2023-07-20T09:37:40;2.47;;;0.70;;
19059;SDS011;9663;48.996;8.334;2023-07-20T09:40:11;2.45;;;1.00;;
19059;SDS011;9663;48.996;8.334;2023-07-20T09:42:42;2.33;;;0.82;;
19059;SDS011;9663;48.996;8.334;2023-07-20T09:45:08;2.97;;;0.80;;
19059;SDS011;9663;48.996;8.334;2023-07-20T09:47:37;1.73;;;0.80;;
19059;SDS011;9663;48.996;8.334;2023-07-20T09:50:04;2.35;;;0.93;;
19059;SDS011;9663;48.996;8.334;2023-07-20T09:52:36;2.72;;;0.98;;
19059;SDS011;9663;48.996;8.334;2023-07-20T09:55:05;4.78;;;1.23;;
19059;SDS011;9663;48.996;8.334;2023-07-20T09:57:33;4.18;;;1.15;;
19059;SDS011;9663;48.996;8.334;2023-07-20T10:00:04;2.17;;;0.95;;
19059;SDS011;9663;48.996;8.334;2023-07-20T10:02:43;3.38;;;1.30;;
19059;SDS011;9663;48.996;8.334;2023-07-20T10:05:13;3.72;;;1.50;;
19059;SDS011;9663;48.996;8.334;2023-07-20T10:07:43;3.15;;;1.10;;
19059;SDS011;9663;48.996;8.334;2023-07-20T10:10:15;2.28;;;0.88;;
19059;SDS011;9663;48.996;8.334;2023-07-20T10:12:45;2.03;;;0.80;;
19059;SDS011;9663;48.996;8.334;2023-07-20T10:15:23;2.60;;;0.85;;
19059;SDS011;9663;48.996;8.334;2023-07-20T10:18:07;2.25;;;0.85;;
19059;SDS011;9663;48.996;8.334;2023-07-20T10:20:42;3.43;;;1.27;;
19059;SDS011;9663;48.996;8.334;2023-07-20T10:23:11;4.43;;;1.00;;
19059;SDS011;9663;48.996;8.334;2023-07-20T10:25:38;2.28;;;0.80;;
19059;SDS011;9663;48.996;8.334;2023-07-20T10:28:07;3.03;;;1.10;;
19059;SDS011;9663;48.996;8.334;2023-07-20T10:30:35;2.10;;;0.80;;
19059;SDS011;9663;48.996;8.334;2023-07-20T10:33:02;1.98;;;0.70;;
19059;SDS011;9663;48.996;8.334;2023-07-20T10:35:30;2.85;;;0.77;;
19059;SDS011;9663;48.996;8.334;2023-07-20T10:38:16;1.98;;;0.70;;
19059;SDS011;9663;48.996;8.334;2023-07-20T10:40:41;1.70;;;0.70;;
19059;SDS011;9663;48.996;8.334;2023-07-20T10:43:08;2.60;;;0.80;;
19059;SDS011;9663;48.996;8.334;2023-07-20T10:45:50;2.78;;;1.10;;
19059;SDS011;9663;48.996;8.334;2023-07-20T10:48:18;3.38;;;1.00;;
19059;SDS011;9663;48.996;8.334;2023-07-20T10:51:08;2.53;;;0.97;;
19059;SDS011;9663;48.996;8.334;2023-07-20T10:53:39;2.40;;;0.90;;
19059;SDS011;9663;48.996;8.334;2023-07-20T10:56:06;2.80;;;0.90;;
19059;SDS011;9663;48.996;8.334;2023-07-20T10:58:36;4.00;;;0.90;;
19059;SDS011;9663;48.996;8.334;2023-07-20T11:01:02;2.22;;;0.85;;
19059;SDS011;9663;48.996;8.334;2023-07-20T11:03:31;2.63;;;0.85;;
19059;SDS011;9663;48.996;8.334;2023-07-20T11:08:56;1.80;;;0.70;;
19059;SDS011;9663;48.996;8.334;2023-07-20T11:11:31;2.50;;;0.90;;
19059;SDS011;9663;48.996;8.334;2023-07-20T11:14:10;2.05;;;0.70;;
19059;SDS011;9663;48.996;8.334;2023-07-20T11:16:48;2.08;;;0.80;;
19059;SDS011;9663;48.996;8.334;2023-07-20T11:19:19;1.80;;;0.70;;
19059;SDS011;9663;48.996;8.334;2023-07-20T11:21:54;1.85;;;0.68;;
19059;SDS011;9663;48.996;8.334;2023-07-20T11:24:22;2.17;;;0.70;;
19059;SDS011;9663;48.996;8.334;2023-07-20T11:26:49;2.28;;;0.70;;
19059;SDS011;9663;48.996;8.334;2023-07-20T11:29:18;1.67;;;0.68;;
19059;SDS011;9663;48.996;8.334;2023-07-20T11:31:49;2.25;;;0.77;;
19059;SDS011;9663;48.996;8.334;2023-07-20T11:34:16;1.90;;;0.80;;
19059;SDS011;9663;48.996;8.334;2023-07-20T11:36:45;1.98;;;0.82;;
19059;SDS011;9663;48.996;8.334;2023-07-20T11:39:16;2.30;;;0.80;;
19059;SDS011;9663;48.996;8.334;2023-07-20T11:41:52;2.72;;;0.75;;
19059;SDS011;9663;48.996;8.334;2023-07-20T11:44:21;1.77;;;0.70;;
19059;SDS011;9663;48.996;8.334;2023-07-20T11:47:09;1.65;;;0.63;;
19059;SDS011;9663;48.996;8.334;2023-07-20T11:52:08;1.42;;;0.60;;
19059;SDS011;9663;48.996;8.334;2023-07-20T11:54:39;2.92;;;0.80;;
19059;SDS011;9663;48.996;8.334;2023-07-20T11:57:07;2.15;;;0.70;;
19059;SDS011;9663;48.996;8.334;2023-07-20T11:59:52;3.63;;;0.80;;
19059;SDS011;9663;48.996;8.334;2023-07-20T12:02:22;1.70;;;0.70;;
19059;SDS011;9663;48.996;8.334;2023-07-20T12:04:50;1.55;;;0.60;;
19059;SDS011;9663;48.996;8.334;2023-07-20T12:07:17;1.60;;;0.68;;
19059;SDS011;9663;48.996;8.334;2023-07-20T12:09:44;1.83;;;0.60;;
19059;SDS011;9663;48.996;8.334;2023-07-20T12:12:28;1.55;;;0.57;;
19059;SDS011;9663;48.996;8.334;2023-07-20T12:14:56;2.50;;;0.98;;
19059;SDS011;9663;48.996;8.334;2023-07-20T12:18:01;1.60;;;0.70;;
19059;SDS011;9663;48.996;8.334;2023-07-20T12:20:31;1.80;;;0.68;;
19059;SDS011;9663;48.996;8.334;2023-07-20T12:23:05;1.92;;;0.68;;
19059;SDS011;9663;48.996;8.334;2023-07-20T12:28:09;2.13;;;0.75;;
19059;SDS011;9663;48.996;8.334;2023-07-20T12:30:47;1.73;;;0.70;;
19059;SDS011;9663;48.996;8.334;2023-07-20T12:33:21;1.95;;;0.60;;
19059;SDS011;9663;48.996;8.334;2023-07-20T12:35:47;2.47;;;0.95;;
19059;SDS011;9663;48.996;8.334;2023-07-20T12:38:15;3.63;;;0.80;;
19059;SDS011;9663;48.996;8.334;2023-07-20T12:40:41;1.60;;;0.70;;
19059;SDS011;9663;48.996;8.334;2023-07-20T12:43:07;2.10;;;0.70;;
19059;SDS011;9663;48.996;8.334;2023-07-20T12:45:33;1.17;;;0.55;;
19059;SDS011;9663;48.996;8.334;2023-07-20T12:47:59;1.58;;;0.60;;
19059;SDS011;9663;48.996;8.334;2023-07-20T12:50:26;2.20;;;0.80;;
19059;SDS011;9663;48.996;8.334;2023-07-20T12:52:52;1.60;;;0.60;;
19059;SDS011;9663;48.996;8.334;2023-07-20T12:55:18;2.60;;;0.80;;
19059;SDS011;9663;48.996;8.334;2023-07-20T12:57:45;2.10;;;0.82;;
19059;SDS011;9663;48.996;8.334;2023-07-20T13:00:14;1.35;;;0.57;;
19059;SDS011;9663;48.996;8.334;2023-07-20T13:02:41;1.02;;;0.50;;
19059;SDS011;9663;48.996;8.334;2023-07-20T13:05:08;2.05;;;0.80;;
19059;SDS011;9663;48.996;8.334;2023-07-20T13:07:35;1.20;;;0.50;;
19059;SDS011;9663;48.996;8.334;2023-07-20T13:10:04;1.98;;;0.70;;
19059;SDS011;9663;48.996;8.334;2023-07-20T13:12:31;1.63;;;0.65;;
19059;SDS011;9663;48.996;8.334;2023-07-20T13:14:59;2.13;;;0.73;;
19059;SDS011;9663;48.996;8.334;2023-07-20T13:17:30;1.88;;;0.70;;
19059;SDS011;9663;48.996;8.334;2023-07-20T13:20:01;1.67;;;0.60;;
19059;SDS011;9663;48.996;8.334;2023-07-20T13:22:29;1.63;;;0.70;;
19059;SDS011;9663;48.996;8.334;2023-07-20T13:24:56;1.58;;;0.60;;
19059;SDS011;9663;48.996;8.334;2023-07-20T13:27:21;2.25;;;0.80;;
19059;SDS011;9663;48.996;8.334;2023-07-20T13:29:47;3.45;;;0.70;;
19059;SDS011;9663;48.996;8.334;2023-07-20T13:32:13;1.60;;;0.70;;
19059;SDS011;9663;48.996;8.334;2023-07-20T13:34:40;1.80;;;0.65;;
19059;SDS011;9663;48.996;8.334;2023-07-20T13:37:06;1.83;;;0.70;;
19059;SDS011;9663;48.996;8.334;2023-07-20T13:39:33;1.83;;;0.70;;
19059;SDS011;9663;48.996;8.334;2023-07-20T13:41:58;1.40;;;0.60;;
19059;SDS011;9663;48.996;8.334;2023-07-20T13:44:26;2.03;;;0.68;;
19059;SDS011;9663;48.996;8.334;2023-07-20T13:46:52;1.40;;;0.65;;
19059;SDS011;9663;48.996;8.334;2023-07-20T13:49:18;1.35;;;0.60;;
19059;SDS011;9663;48.996;8.334;2023-07-20T13:51:43;1.92;;;0.73;;
19059;SDS011;9663;48.996;8.334;2023-07-20T13:54:09;1.83;;;0.80;;
19059;SDS011;9663;48.996;8.334;2023-07-20T13:56:36;1.92;;;0.77;;
19059;SDS011;9663;48.996;8.334;2023-07-20T13:59:02;1.67;;;0.70;;
19059;SDS011;9663;48.996;8.334;2023-07-20T14:01:28;1.48;;;0.60;;
19059;SDS011;9663;48.996;8.334;2023-07-20T14:03:55;1.48;;;0.70;;
19059;SDS011;9663;48.996;8.334;2023-07-20T14:06:21;1.83;;;0.63;;
19059;SDS011;9663;48.996;8.334;2023-07-20T14:08:47;1.52;;;0.68;;
19059;SDS011;9663;48.996;8.334;2023-07-20T14:11:14;1.50;;;0.57;;
19059;SDS011;9663;48.996;8.334;2023-07-20T14:13:39;1.58;;;0.60;;
19059;SDS011;9663;48.996;8.334;2023-07-20T14:16:05;2.13;;;0.80;;
19059;SDS011;9663;48.996;8.334;2023-07-20T14:18:31;2.10;;;0.70;;
19059;SDS011;9663;48.996;8.334;2023-07-20T14:20:57;1.77;;;0.70;;
19059;SDS011;9663;48.996;8.334;2023-07-20T14:23:22;1.65;;;0.70;;
19059;SDS011;9663;48.996;8.334;2023-07-20T14:25:48;1.67;;;0.65;;
19059;SDS011;9663;48.996;8.334;2023-07-20T14:28:14;1.02;;;0.50;;
19059;SDS011;9663;48.996;8.334;2023-07-20T14:30:40;2.35;;;0.57;;
19059;SDS011;9663;48.996;8.334;2023-07-20T14:33:06;1.60;;;0.60;;
19059;SDS011;9663;48.996;8.334;2023-07-20T14:35:32;2.42;;;0.70;;
19059;SDS011;9663;48.996;8.334;2023-07-20T14:37:59;2.05;;;0.73;;
19059;SDS011;9663;48.996;8.334;2023-07-20T14:40:25;1.95;;;0.70;;
19059;SDS011;9663;48.996;8.334;2023-07-20T14:42:51;1.10;;;0.50;;
19059;SDS011;9663;48.996;8.334;2023-07-20T14:45:17;1.77;;;0.70;;
19059;SDS011;9663;48.996;8.334;2023-07-20T14:47:44;1.45;;;0.70;;
19059;SDS011;9663;48.996;8.334;2023-07-20T14:50:10;1.50;;;0.60;;
19059;SDS011;9663;48.996;8.334;2023-07-20T14:52:36;2.35;;;0.70;;
19059;SDS011;9663;48.996;8.334;2023-07-20T14:55:02;1.77;;;0.80;;
19059;SDS011;9663;48.996;8.334;2023-07-20T14:57:29;1.80;;;0.70;;
19059;SDS011;9663;48.996;8.334;2023-07-20T14:59:55;2.33;;;0.70;;
19059;SDS011;9663;48.996;8.334;2023-07-20T15:02:20;1.85;;;0.80;;
19059;SDS011;9663;48.996;8.334;2023-07-20T15:04:47;1.05;;;0.60;;
19059;SDS011;9663;48.996;8.334;2023-07-20T15:07:18;2.83;;;0.90;;
19059;SDS011;9663;48.996;8.334;2023-07-20T15:09:46;1.63;;;0.60;;
19059;SDS011;9663;48.996;8.334;2023-07-20T15:12:12;5.75;;;0.85;;
19059;SDS011;9663;48.996;8.334;2023-07-20T15:14:39;1.20;;;0.60;;
19059;SDS011;9663;48.996;8.334;2023-07-20T15:17:06;1.30;;;0.68;;
19059;SDS011;9663;48.996;8.334;2023-07-20T15:19:33;1.67;;;0.80;;
19059;SDS011;9663;48.996;8.334;2023-07-20T15:22:00;2.33;;;0.80;;